North Falmouth, Massachusetts
Current Conditions -  °F | °C
As of 5:55 PM on Tuesday 27 Jan 2015 (Local Time) from KFMH Reporting Station
Moderate Snow Moderate Snow  
Wind Chill: -18°   Ceiling: 300
Heat Index: -8°   Visibility: 0.25mi
Dew Point: -10°   Wind: 22mph
Humidity: 86%   Direction: 330°NNW
Pressure: 29.44"   Gusts: 37mph
Location:  41.64°N, 70.63°W
Report Text: KFMH 272255Z AUTO 33019G32KT 1/4SM SN OVC003 M08/M10 A2944 RMK AO2
Loading
Personal Weather Stations






























Interactive Weather Map New forecast layout! Learn more

10-Day Weather Forecast

Advertisements
Track Severe Weather on mobile